sensor_id;sensor_type;location;lat;lon;timestamp;pressure;altitude;pressure_sealevel;temperature;humidity
6194;BME280;3130;41.564;23.280;2023-04-10T00:00:10;98859.56;;;8.98;100.00
6194;BME280;3130;41.564;23.280;2023-04-10T00:02:37;98851.25;;;8.63;100.00
6194;BME280;3130;41.564;23.280;2023-04-10T00:05:06;98859.16;;;8.74;100.00
6194;BME280;3130;41.564;23.280;2023-04-10T00:07:33;98850.69;;;8.74;100.00
6194;BME280;3130;41.564;23.280;2023-04-10T00:10:02;98848.53;;;8.66;100.00
6194;BME280;3130;41.564;23.280;2023-04-10T00:12:29;98810.75;;;8.40;100.00
6194;BME280;3130;41.564;23.280;2023-04-10T00:14:56;98844.06;;;8.54;100.00
6194;BME280;3130;41.564;23.280;2023-04-10T00:17:23;98839.19;;;8.50;100.00
6194;BME280;3130;41.564;23.280;2023-04-10T00:19:50;98843.16;;;8.55;100.00
6194;BME280;3130;41.564;23.280;2023-04-10T00:22:17;98844.25;;;8.51;100.00
6194;BME280;3130;41.564;23.280;2023-04-10T00:24:44;98838.13;;;8.54;100.00
6194;BME280;3130;41.564;23.280;2023-04-10T00:27:13;98805.78;;;8.22;100.00
6194;BME280;3130;41.564;23.280;2023-04-10T00:29:40;98819.81;;;8.13;100.00
6194;BME280;3130;41.564;23.280;2023-04-10T00:32:07;98832.13;;;8.22;100.00
6194;BME280;3130;41.564;23.280;2023-04-10T00:34:34;98837.41;;;8.19;100.00
6194;BME280;3130;41.564;23.280;2023-04-10T00:37:01;98830.78;;;8.15;100.00
6194;BME280;3130;41.564;23.280;2023-04-10T00:39:29;98828.03;;;8.20;100.00
6194;BME280;3130;41.564;23.280;2023-04-10T00:41:56;98797.03;;;7.94;100.00
6194;BME280;3130;41.564;23.280;2023-04-10T00:44:24;98805.84;;;7.88;100.00
6194;BME280;3130;41.564;23.280;2023-04-10T00:46:51;98838.19;;;7.88;100.00
6194;BME280;3130;41.564;23.280;2023-04-10T00:49:18;98840.69;;;7.89;100.00
6194;BME280;3130;41.564;23.280;2023-04-10T00:51:46;98838.44;;;7.83;100.00
6194;BME280;3130;41.564;23.280;2023-04-10T00:54:13;98828.81;;;7.88;100.00
6194;BME280;3130;41.564;23.280;2023-04-10T00:56:40;98836.38;;;7.90;100.00
6194;BME280;3130;41.564;23.280;2023-04-10T00:59:07;98827.06;;;7.89;100.00
6194;BME280;3130;41.564;23.280;2023-04-10T01:01:36;98827.53;;;7.97;100.00
6194;BME280;3130;41.564;23.280;2023-04-10T01:04:03;98798.13;;;7.73;100.00
6194;BME280;3130;41.564;23.280;2023-04-10T01:06:40;98823.03;;;7.85;100.00
6194;BME280;3130;41.564;23.280;2023-04-10T01:09:16;98824.63;;;7.70;100.00
6194;BME280;3130;41.564;23.280;2023-04-10T01:11:50;98818.31;;;7.60;100.00
6194;BME280;3130;41.564;23.280;2023-04-10T01:14:26;98813.44;;;7.56;100.00
6194;BME280;3130;41.564;23.280;2023-04-10T01:17:01;98803.88;;;7.44;100.00
6194;BME280;3130;41.564;23.280;2023-04-10T01:19:48;98774.81;;;7.29;100.00
6194;BME280;3130;41.564;23.280;2023-04-10T01:22:27;98812.84;;;7.51;100.00
6194;BME280;3130;41.564;23.280;2023-04-10T01:25:16;98819.22;;;7.59;100.00
6194;BME280;3130;41.564;23.280;2023-04-10T01:27:54;98818.31;;;7.60;100.00
6194;BME280;3130;41.564;23.280;2023-04-10T01:30:30;98819.75;;;7.49;100.00
6194;BME280;3130;41.564;23.280;2023-04-10T01:32:59;98821.09;;;7.39;100.00
6194;BME280;3130;41.564;23.280;2023-04-10T01:35:28;98817.81;;;7.37;100.00
6194;BME280;3130;41.564;23.280;2023-04-10T01:37:57;98829.00;;;7.34;100.00
6194;BME280;3130;41.564;23.280;2023-04-10T01:40:28;98806.22;;;7.30;100.00
6194;BME280;3130;41.564;23.280;2023-04-10T01:42:55;98827.78;;;7.41;100.00
6194;BME280;3130;41.564;23.280;2023-04-10T01:45:26;98826.97;;;7.41;100.00
6194;BME280;3130;41.564;23.280;2023-04-10T01:47:55;98831.16;;;7.42;100.00
6194;BME280;3130;41.564;23.280;2023-04-10T01:50:24;98820.97;;;7.42;100.00
6194;BME280;3130;41.564;23.280;2023-04-10T01:52:53;98819.31;;;7.41;100.00
6194;BME280;3130;41.564;23.280;2023-04-10T01:55:21;98821.63;;;7.62;100.00
6194;BME280;3130;41.564;23.280;2023-04-10T01:57:49;98823.78;;;7.70;100.00
6194;BME280;3130;41.564;23.280;2023-04-10T02:00:16;98797.53;;;7.51;100.00
6194;BME280;3130;41.564;23.280;2023-04-10T02:02:43;98823.88;;;7.51;100.00
6194;BME280;3130;41.564;23.280;2023-04-10T02:05:14;98831.16;;;7.42;100.00
6194;BME280;3130;41.564;23.280;2023-04-10T02:07:46;98828.75;;;7.39;100.00
6194;BME280;3130;41.564;23.280;2023-04-10T02:10:20;98817.56;;;7.41;100.00
6194;BME280;3130;41.564;23.280;2023-04-10T02:12:51;98813.00;;;7.48;100.00
6194;BME280;3130;41.564;23.280;2023-04-10T02:15:22;98813.75;;;7.50;100.00
6194;BME280;3130;41.564;23.280;2023-04-10T02:17:50;98811.13;;;7.51;100.00
6194;BME280;3130;41.564;23.280;2023-04-10T02:20:20;98809.88;;;7.43;100.00
6194;BME280;3130;41.564;23.280;2023-04-10T02:22:48;98810.63;;;7.45;100.00
6194;BME280;3130;41.564;23.280;2023-04-10T02:25:16;98771.75;;;7.23;100.00
6194;BME280;3130;41.564;23.280;2023-04-10T02:27:43;98810.91;;;7.39;100.00
6194;BME280;3130;41.564;23.280;2023-04-10T02:30:10;98797.91;;;7.26;100.00
6194;BME280;3130;41.564;23.280;2023-04-10T02:32:37;98786.75;;;7.29;100.00
6194;BME280;3130;41.564;23.280;2023-04-10T02:35:04;98798.25;;;7.37;100.00
6194;BME280;3130;41.564;23.280;2023-04-10T02:37:33;98802.22;;;7.43;100.00
6194;BME280;3130;41.564;23.280;2023-04-10T02:40:00;98789.50;;;7.41;100.00
6194;BME280;3130;41.564;23.280;2023-04-10T02:42:27;98790.34;;;7.42;100.00
6194;BME280;3130;41.564;23.280;2023-04-10T02:44:54;98798.00;;;7.42;100.00
6194;BME280;3130;41.564;23.280;2023-04-10T02:47:21;98795.47;;;7.42;100.00
6194;BME280;3130;41.564;23.280;2023-04-10T02:49:48;98788.75;;;7.56;100.00
6194;BME280;3130;41.564;23.280;2023-04-10T02:52:15;98787.78;;;7.59;100.00
6194;BME280;3130;41.564;23.280;2023-04-10T02:54:44;98649.94;;;6.79;100.00
6194;BME280;3130;41.564;23.280;2023-04-10T02:57:12;98786.66;;;7.64;100.00
6194;BME280;3130;41.564;23.280;2023-04-10T02:59:38;98793.56;;;7.62;100.00
6194;BME280;3130;41.564;23.280;2023-04-10T03:02:05;98791.25;;;7.58;100.00
6194;BME280;3130;41.564;23.280;2023-04-10T03:04:33;98771.88;;;7.54;100.00
6194;BME280;3130;41.564;23.280;2023-04-10T03:07:00;98769.84;;;7.60;100.00
6194;BME280;3130;41.564;23.280;2023-04-10T03:09:27;98788.72;;;7.73;100.00
6194;BME280;3130;41.564;23.280;2023-04-10T03:11:55;98777.84;;;7.70;100.00
6194;BME280;3130;41.564;23.280;2023-04-10T03:14:22;98774.50;;;7.69;100.00
6194;BME280;3130;41.564;23.280;2023-04-10T03:16:49;98777.63;;;7.74;100.00
6194;BME280;3130;41.564;23.280;2023-04-10T03:19:16;98792.63;;;7.80;100.00
6194;BME280;3130;41.564;23.280;2023-04-10T03:21:44;98796.84;;;7.81;100.00
6194;BME280;3130;41.564;23.280;2023-04-10T03:24:11;98797.31;;;7.72;100.00
6194;BME280;3130;41.564;23.280;2023-04-10T03:26:38;98799.63;;;7.77;100.00
6194;BME280;3130;41.564;23.280;2023-04-10T03:29:07;98784.38;;;7.75;100.00
6194;BME280;3130;41.564;23.280;2023-04-10T03:31:34;98786.41;;;7.69;100.00
6194;BME280;3130;41.564;23.280;2023-04-10T03:34:01;98802.94;;;7.79;100.00
6194;BME280;3130;41.564;23.280;2023-04-10T03:36:28;98799.09;;;7.87;100.00
6194;BME280;3130;41.564;23.280;2023-04-10T03:38:55;98803.56;;;7.99;100.00
6194;BME280;3130;41.564;23.280;2023-04-10T03:41:22;98791.28;;;8.05;100.00
6194;BME280;3130;41.564;23.280;2023-04-10T03:43:50;98793.84;;;7.73;100.00
6194;BME280;3130;41.564;23.280;2023-04-10T03:46:18;98793.34;;;7.50;100.00
6194;BME280;3130;41.564;23.280;2023-04-10T03:48:47;98787.47;;;7.48;100.00
6194;BME280;3130;41.564;23.280;2023-04-10T03:51:15;98793.28;;;7.51;100.00
6194;BME280;3130;41.564;23.280;2023-04-10T03:53:42;98784.63;;;7.54;100.00
6194;BME280;3130;41.564;23.280;2023-04-10T03:56:09;98743.84;;;7.37;100.00
6194;BME280;3130;41.564;23.280;2023-04-10T03:58:36;98745.25;;;7.42;100.00
6194;BME280;3130;41.564;23.280;2023-04-10T04:01:04;98782.03;;;7.55;100.00
6194;BME280;3130;41.564;23.280;2023-04-10T04:03:33;98794.53;;;7.60;100.00
6194;BME280;3130;41.564;23.280;2023-04-10T04:06:00;98796.94;;;7.63;100.00
6194;BME280;3130;41.564;23.280;2023-04-10T04:08:27;98805.00;;;7.55;100.00
6194;BME280;3130;41.564;23.280;2023-04-10T04:10:54;98796.25;;;7.59;100.00
6194;BME280;3130;41.564;23.280;2023-04-10T04:13:21;98803.75;;;7.62;100.00
6194;BME280;3130;41.564;23.280;2023-04-10T04:15:48;98792.66;;;7.46;100.00
6194;BME280;3130;41.564;23.280;2023-04-10T04:18:15;98794.47;;;7.44;100.00
6194;BME280;3130;41.564;23.280;2023-04-10T04:20:44;98788.38;;;7.47;100.00
6194;BME280;3130;41.564;23.280;2023-04-10T04:23:11;98797.25;;;7.40;100.00
6194;BME280;3130;41.564;23.280;2023-04-10T04:25:38;98805.88;;;7.54;100.00
6194;BME280;3130;41.564;23.280;2023-04-10T04:28:05;98802.88;;;7.63;100.00
6194;BME280;3130;41.564;23.280;2023-04-10T04:30:32;98807.88;;;7.65;100.00
6194;BME280;3130;41.564;23.280;2023-04-10T04:32:59;98816.13;;;7.70;100.00
6194;BME280;3130;41.564;23.280;2023-04-10T04:35:26;98813.69;;;7.68;100.00
6194;BME280;3130;41.564;23.280;2023-04-10T04:37:54;98810.38;;;7.66;100.00
6194;BME280;3130;41.564;23.280;2023-04-10T04:40:21;98802.84;;;7.80;100.00
6194;BME280;3130;41.564;23.280;2023-04-10T04:42:48;98816.47;;;7.96;100.00
6194;BME280;3130;41.564;23.280;2023-04-10T04:45:15;98820.44;;;8.01;100.00
6194;BME280;3130;41.564;23.280;2023-04-10T04:47:42;98816.03;;;8.05;100.00
6194;BME280;3130;41.564;23.280;2023-04-10T04:50:09;98809.22;;;7.89;100.00
6194;BME280;3130;41.564;23.280;2023-04-10T04:52:36;98772.69;;;7.71;100.00
6194;BME280;3130;41.564;23.280;2023-04-10T04:55:06;98825.22;;;8.24;100.00
6194;BME280;3130;41.564;23.280;2023-04-10T04:57:34;98827.66;;;8.43;100.00
6194;BME280;3130;41.564;23.280;2023-04-10T05:00:01;98833.03;;;8.54;100.00
6194;BME280;3130;41.564;23.280;2023-04-10T05:02:28;98729.97;;;8.07;100.00
6194;BME280;3130;41.564;23.280;2023-04-10T05:04:55;98810.94;;;8.68;100.00
6194;BME280;3130;41.564;23.280;2023-04-10T05:07:22;98829.50;;;8.87;98.79
6194;BME280;3130;41.564;23.280;2023-04-10T05:09:50;98837.06;;;8.89;97.97
6194;BME280;3130;41.564;23.280;2023-04-10T05:12:18;98833.34;;;8.94;97.53
6194;BME280;3130;41.564;23.280;2023-04-10T05:14:45;98838.19;;;8.98;97.19
6194;BME280;3130;41.564;23.280;2023-04-10T05:17:12;98829.13;;;9.08;96.68
6194;BME280;3130;41.564;23.280;2023-04-10T05:19:41;98830.41;;;9.15;95.83
6194;BME280;3130;41.564;23.280;2023-04-10T05:22:08;98826.66;;;9.36;96.08
6194;BME280;3130;41.564;23.280;2023-04-10T05:24:35;98791.22;;;9.30;94.81
6194;BME280;3130;41.564;23.280;2023-04-10T05:27:03;98798.38;;;9.53;93.68
6194;BME280;3130;41.564;23.280;2023-04-10T05:29:31;98812.97;;;9.81;92.15
6194;BME280;3130;41.564;23.280;2023-04-10T05:31:59;98798.00;;;9.89;90.89
6194;BME280;3130;41.564;23.280;2023-04-10T05:34:26;98810.03;;;10.16;89.69
6194;BME280;3130;41.564;23.280;2023-04-10T05:36:53;98792.34;;;10.11;89.23
6194;BME280;3130;41.564;23.280;2023-04-10T05:39:20;98815.41;;;10.11;88.92
6194;BME280;3130;41.564;23.280;2023-04-10T05:41:47;98820.97;;;10.46;89.19
6194;BME280;3130;41.564;23.280;2023-04-10T05:44:15;98801.66;;;10.54;89.42
6194;BME280;3130;41.564;23.280;2023-04-10T05:46:43;98831.25;;;10.86;87.22
6194;BME280;3130;41.564;23.280;2023-04-10T05:49:10;98814.56;;;10.93;84.78
6194;BME280;3130;41.564;23.280;2023-04-10T05:51:38;98823.72;;;11.23;84.83
6194;BME280;3130;41.564;23.280;2023-04-10T05:54:05;98833.44;;;11.45;82.65
6194;BME280;3130;41.564;23.280;2023-04-10T05:56:32;98825.47;;;11.62;81.02
6194;BME280;3130;41.564;23.280;2023-04-10T05:58:59;98829.09;;;11.72;79.25
6194;BME280;3130;41.564;23.280;2023-04-10T06:01:26;98788.28;;;11.67;79.06
6194;BME280;3130;41.564;23.280;2023-04-10T06:03:55;98827.97;;;12.13;77.91
6194;BME280;3130;41.564;23.280;2023-04-10T06:06:22;98827.66;;;12.30;77.40
6194;BME280;3130;41.564;23.280;2023-04-10T06:08:51;98768.03;;;12.12;76.93
6194;BME280;3130;41.564;23.280;2023-04-10T06:11:18;98804.19;;;12.47;76.23
6194;BME280;3130;41.564;23.280;2023-04-10T06:13:45;98824.16;;;12.79;74.91
6194;BME280;3130;41.564;23.280;2023-04-10T06:16:13;98829.13;;;12.70;73.30
6194;BME280;3130;41.564;23.280;2023-04-10T06:18:41;98826.75;;;12.67;72.29
6194;BME280;3130;41.564;23.280;2023-04-10T06:21:10;98820.13;;;12.39;71.43
6194;BME280;3130;41.564;23.280;2023-04-10T06:23:38;98771.72;;;12.33;72.19
6194;BME280;3130;41.564;23.280;2023-04-10T06:26:05;98811.03;;;12.71;71.42
6194;BME280;3130;41.564;23.280;2023-04-10T06:28:33;98811.47;;;12.53;70.28
6194;BME280;3130;41.564;23.280;2023-04-10T06:31:00;98812.09;;;12.92;71.07
6194;BME280;3130;41.564;23.280;2023-04-10T06:33:28;98812.00;;;12.94;70.46
6194;BME280;3130;41.564;23.280;2023-04-10T06:35:55;98766.91;;;12.65;68.83
6194;BME280;3130;41.564;23.280;2023-04-10T06:38:24;98781.13;;;13.28;68.88
6194;BME280;3130;41.564;23.280;2023-04-10T06:40:52;98814.63;;;14.07;67.13
6194;BME280;3130;41.564;23.280;2023-04-10T06:43:19;98752.03;;;14.16;64.52
6194;BME280;3130;41.564;23.280;2023-04-10T06:45:47;98820.88;;;15.13;63.04
6194;BME280;3130;41.564;23.280;2023-04-10T06:48:14;98820.94;;;15.33;60.64
6194;BME280;3130;41.564;23.280;2023-04-10T06:50:41;98823.59;;;15.43;58.20
6194;BME280;3130;41.564;23.280;2023-04-10T06:53:08;98819.47;;;15.92;58.54
6194;BME280;3130;41.564;23.280;2023-04-10T06:55:37;98815.91;;;16.34;57.28
6194;BME280;3130;41.564;23.280;2023-04-10T06:58:04;98820.81;;;16.37;55.56
6194;BME280;3130;41.564;23.280;2023-04-10T07:00:31;98818.59;;;17.11;54.92
6194;BME280;3130;41.564;23.280;2023-04-10T07:02:58;98822.78;;;18.07;51.80
6194;BME280;3130;41.564;23.280;2023-04-10T07:05:25;98823.09;;;18.76;49.01
6194;BME280;3130;41.564;23.280;2023-04-10T07:07:52;98819.25;;;19.42;45.08
6194;BME280;3130;41.564;23.280;2023-04-10T07:10:19;98829.25;;;20.07;43.41
6194;BME280;3130;41.564;23.280;2023-04-10T07:12:48;98829.22;;;20.91;41.55
6194;BME280;3130;41.564;23.280;2023-04-10T07:15:15;98823.84;;;20.92;38.73
6194;BME280;3130;41.564;23.280;2023-04-10T07:17:42;98818.63;;;21.73;38.50
6194;BME280;3130;41.564;23.280;2023-04-10T07:20:10;98805.97;;;22.25;35.52
6194;BME280;3130;41.564;23.280;2023-04-10T07:22:37;98815.75;;;22.31;35.72
6194;BME280;3130;41.564;23.280;2023-04-10T07:25:05;98765.34;;;22.60;34.43
6194;BME280;3130;41.564;23.280;2023-04-10T07:30:00;98800.00;;;21.84;35.58
6194;BME280;3130;41.564;23.280;2023-04-10T07:32:28;98806.66;;;22.11;36.11
6194;BME280;3130;41.564;23.280;2023-04-10T07:34:55;98814.31;;;23.13;34.90
6194;BME280;3130;41.564;23.280;2023-04-10T07:37:22;98819.88;;;22.01;34.15
6194;BME280;3130;41.564;23.280;2023-04-10T07:39:49;98788.63;;;20.88;35.91
6194;BME280;3130;41.564;23.280;2023-04-10T07:42:16;98819.78;;;20.64;38.05
6194;BME280;3130;41.564;23.280;2023-04-10T07:44:43;98800.13;;;19.68;41.63
6194;BME280;3130;41.564;23.280;2023-04-10T07:47:11;98802.78;;;19.16;42.23
6194;BME280;3130;41.564;23.280;2023-04-10T07:49:38;98803.00;;;19.23;41.65
6194;BME280;3130;41.564;23.280;2023-04-10T07:52:06;98797.22;;;18.30;43.31
6194;BME280;3130;41.564;23.280;2023-04-10T07:54:33;98805.97;;;17.65;45.18
6194;BME280;3130;41.564;23.280;2023-04-10T07:57:00;98789.28;;;16.52;50.08
6194;BME280;3130;41.564;23.280;2023-04-10T07:59:27;98794.97;;;16.16;52.44
6194;BME280;3130;41.564;23.280;2023-04-10T08:01:54;98788.94;;;16.76;50.39
6194;BME280;3130;41.564;23.280;2023-04-10T08:04:23;98789.53;;;17.17;48.48
6194;BME280;3130;41.564;23.280;2023-04-10T08:06:50;98793.59;;;17.86;46.63
6194;BME280;3130;41.564;23.280;2023-04-10T08:09:18;98789.84;;;18.17;45.66
6194;BME280;3130;41.564;23.280;2023-04-10T08:11:45;98786.34;;;18.08;45.08
6194;BME280;3130;41.564;23.280;2023-04-10T08:14:12;98783.00;;;17.41;46.44
6194;BME280;3130;41.564;23.280;2023-04-10T08:16:39;98784.81;;;17.41;46.66
6194;BME280;3130;41.564;23.280;2023-04-10T08:19:06;98784.06;;;17.01;48.17
6194;BME280;3130;41.564;23.280;2023-04-10T08:21:34;98783.13;;;17.12;48.63
6194;BME280;3130;41.564;23.280;2023-04-10T08:24:02;98767.25;;;16.77;48.21
6194;BME280;3130;41.564;23.280;2023-04-10T08:26:29;98769.88;;;16.86;48.76
6194;BME280;3130;41.564;23.280;2023-04-10T08:28:58;98783.09;;;16.93;47.64
6194;BME280;3130;41.564;23.280;2023-04-10T08:31:27;98774.56;;;17.11;49.47
6194;BME280;3130;41.564;23.280;2023-04-10T08:33:54;98781.63;;;17.09;48.76
6194;BME280;3130;41.564;23.280;2023-04-10T08:36:21;98766.47;;;17.14;47.73
6194;BME280;3130;41.564;23.280;2023-04-10T08:38:50;98768.41;;;17.21;47.95
6194;BME280;3130;41.564;23.280;2023-04-10T08:41:18;98758.41;;;16.89;46.43
6194;BME280;3130;41.564;23.280;2023-04-10T08:43:45;98773.84;;;17.00;45.28
6194;BME280;3130;41.564;23.280;2023-04-10T08:46:14;98766.88;;;17.00;45.80
6194;BME280;3130;41.564;23.280;2023-04-10T08:48:45;98757.47;;;16.90;45.49
6194;BME280;3130;41.564;23.280;2023-04-10T08:51:16;98754.09;;;17.17;45.17
6194;BME280;3130;41.564;23.280;2023-04-10T08:53:45;98756.28;;;17.41;45.27
6194;BME280;3130;41.564;23.280;2023-04-10T08:56:17;98744.78;;;17.62;44.70
6194;BME280;3130;41.564;23.280;2023-04-10T08:58:44;98751.94;;;17.97;44.54
6194;BME280;3130;41.564;23.280;2023-04-10T09:01:11;98740.09;;;17.75;44.67
6194;BME280;3130;41.564;23.280;2023-04-10T09:03:38;98747.38;;;17.24;45.71
6194;BME280;3130;41.564;23.280;2023-04-10T09:06:05;98746.03;;;17.11;46.55
6194;BME280;3130;41.564;23.280;2023-04-10T09:08:33;98739.34;;;17.09;46.97
6194;BME280;3130;41.564;23.280;2023-04-10T09:11:01;98741.66;;;17.21;45.60
6194;BME280;3130;41.564;23.280;2023-04-10T09:13:37;98739.50;;;17.35;46.28
6194;BME280;3130;41.564;23.280;2023-04-10T09:16:06;98734.03;;;17.10;45.23
6194;BME280;3130;41.564;23.280;2023-04-10T09:18:41;98730.59;;;16.91;46.04
6194;BME280;3130;41.564;23.280;2023-04-10T09:21:09;98732.22;;;16.73;44.57
6194;BME280;3130;41.564;23.280;2023-04-10T09:23:36;98724.06;;;16.87;45.47
6194;BME280;3130;41.564;23.280;2023-04-10T09:26:13;98720.81;;;17.04;44.50
6194;BME280;3130;41.564;23.280;2023-04-10T09:28:56;98715.22;;;17.27;43.22
6194;BME280;3130;41.564;23.280;2023-04-10T09:31:32;98715.09;;;17.38;43.66
6194;BME280;3130;41.564;23.280;2023-04-10T09:34:12;98696.91;;;17.28;43.16
6194;BME280;3130;41.564;23.280;2023-04-10T09:36:39;98701.31;;;17.47;42.63
6194;BME280;3130;41.564;23.280;2023-04-10T09:39:08;98678.47;;;17.60;41.74
6194;BME280;3130;41.564;23.280;2023-04-10T09:41:49;98709.88;;;17.93;39.54
6194;BME280;3130;41.564;23.280;2023-04-10T09:44:30;98690.97;;;17.74;39.07
6194;BME280;3130;41.564;23.280;2023-04-10T09:46:57;98703.06;;;17.46;38.58
6194;BME280;3130;41.564;23.280;2023-04-10T09:49:24;98697.53;;;17.78;39.91
6194;BME280;3130;41.564;23.280;2023-04-10T09:51:51;98698.09;;;17.72;37.83
6194;BME280;3130;41.564;23.280;2023-04-10T09:54:34;98698.78;;;17.64;37.51
6194;BME280;3130;41.564;23.280;2023-04-10T09:57:03;98695.44;;;17.07;38.30
6194;BME280;3130;41.564;23.280;2023-04-10T09:59:36;98691.34;;;16.18;39.84
6194;BME280;3130;41.564;23.280;2023-04-10T10:02:05;98683.56;;;16.48;40.27
6194;BME280;3130;41.564;23.280;2023-04-10T10:04:33;98679.63;;;16.91;41.11
6194;BME280;3130;41.564;23.280;2023-04-10T10:07:01;98667.44;;;16.44;39.21
6194;BME280;3130;41.564;23.280;2023-04-10T10:09:29;98675.25;;;16.14;39.62
6194;BME280;3130;41.564;23.280;2023-04-10T10:11:57;98674.97;;;16.08;41.79
6194;BME280;3130;41.564;23.280;2023-04-10T10:14:25;98669.19;;;15.86;41.57
6194;BME280;3130;41.564;23.280;2023-04-10T10:16:55;98682.75;;;16.08;40.78
6194;BME280;3130;41.564;23.280;2023-04-10T10:19:32;98679.88;;;16.50;38.93
6194;BME280;3130;41.564;23.280;2023-04-10T10:22:03;98673.22;;;16.86;39.25
6194;BME280;3130;41.564;23.280;2023-04-10T10:24:35;98677.72;;;17.03;37.93
6194;BME280;3130;41.564;23.280;2023-04-10T10:27:08;98662.97;;;17.13;36.23
6194;BME280;3130;41.564;23.280;2023-04-10T10:29:36;98640.59;;;17.21;37.45
6194;BME280;3130;41.564;23.280;2023-04-10T10:32:07;98663.00;;;17.68;37.23
6194;BME280;3130;41.564;23.280;2023-04-10T10:34:35;98664.28;;;17.64;36.33
6194;BME280;3130;41.564;23.280;2023-04-10T10:37:03;98673.59;;;17.84;36.62
6194;BME280;3130;41.564;23.280;2023-04-10T10:39:38;98665.00;;;17.83;36.52
6194;BME280;3130;41.564;23.280;2023-04-10T10:42:14;98663.13;;;17.76;36.27
6194;BME280;3130;41.564;23.280;2023-04-10T10:44:48;98645.00;;;17.66;35.75
6194;BME280;3130;41.564;23.280;2023-04-10T10:47:21;98661.09;;;17.70;35.10
6194;BME280;3130;41.564;23.280;2023-04-10T10:49:54;98653.94;;;17.45;36.83
6194;BME280;3130;41.564;23.280;2023-04-10T10:52:38;98632.50;;;17.52;37.65
6194;BME280;3130;41.564;23.280;2023-04-10T10:55:27;98647.16;;;17.71;37.19
6194;BME280;3130;41.564;23.280;2023-04-10T10:57:57;98649.72;;;17.44;37.59
6194;BME280;3130;41.564;23.280;2023-04-10T11:00:26;98642.19;;;17.50;38.04
6194;BME280;3130;41.564;23.280;2023-04-10T11:03:29;98629.16;;;17.69;36.96
6194;BME280;3130;41.564;23.280;2023-04-10T11:05:58;98634.03;;;17.82;37.15
6194;BME280;3130;41.564;23.280;2023-04-10T11:08:39;98635.34;;;17.86;36.98
6194;BME280;3130;41.564;23.280;2023-04-10T11:11:09;98633.72;;;17.58;36.73
6194;BME280;3130;41.564;23.280;2023-04-10T11:13:38;98633.66;;;17.67;37.53
6194;BME280;3130;41.564;23.280;2023-04-10T11:16:07;98630.16;;;17.59;36.66
6194;BME280;3130;41.564;23.280;2023-04-10T11:19:04;98624.66;;;17.71;36.43
6194;BME280;3130;41.564;23.280;2023-04-10T11:21:33;98628.44;;;17.77;35.85
6194;BME280;3130;41.564;23.280;2023-04-10T11:24:02;98634.50;;;17.58;35.13
6194;BME280;3130;41.564;23.280;2023-04-10T11:26:36;98625.53;;;17.53;35.63
6194;BME280;3130;41.564;23.280;2023-04-10T11:29:04;98626.63;;;17.50;35.64
6194;BME280;3130;41.564;23.280;2023-04-10T11:31:32;98622.91;;;17.07;35.84
6194;BME280;3130;41.564;23.280;2023-04-10T11:34:05;98624.81;;;16.86;35.40
6194;BME280;3130;41.564;23.280;2023-04-10T11:36:33;98623.72;;;16.70;34.93
6194;BME280;3130;41.564;23.280;2023-04-10T11:39:02;98617.91;;;16.58;35.31
6194;BME280;3130;41.564;23.280;2023-04-10T11:41:31;98598.13;;;16.57;35.39
6194;BME280;3130;41.564;23.280;2023-04-10T11:43:59;98606.28;;;16.53;35.73
6194;BME280;3130;41.564;23.280;2023-04-10T11:46:27;98609.72;;;16.53;35.86
6194;BME280;3130;41.564;23.280;2023-04-10T11:48:55;98608.06;;;16.52;35.35
6194;BME280;3130;41.564;23.280;2023-04-10T11:51:24;98607.13;;;16.63;35.29
6194;BME280;3130;41.564;23.280;2023-04-10T11:54:04;98576.31;;;16.60;35.62
6194;BME280;3130;41.564;23.280;2023-04-10T11:56:31;98606.97;;;16.93;35.61
6194;BME280;3130;41.564;23.280;2023-04-10T11:58:58;98603.41;;;16.94;34.68
6194;BME280;3130;41.564;23.280;2023-04-10T12:01:27;98592.94;;;16.76;34.52
6194;BME280;3130;41.564;23.280;2023-04-10T12:03:54;98597.13;;;16.96;34.81
6194;BME280;3130;41.564;23.280;2023-04-10T12:06:21;98592.31;;;17.20;34.49
6194;BME280;3130;41.564;23.280;2023-04-10T12:08:49;98592.69;;;17.44;33.81
6194;BME280;3130;41.564;23.280;2023-04-10T12:11:17;98558.41;;;17.50;32.88
6194;BME280;3130;41.564;23.280;2023-04-10T12:13:45;98516.69;;;16.98;33.10
6194;BME280;3130;41.564;23.280;2023-04-10T12:16:12;98570.06;;;17.36;33.25
6194;BME280;3130;41.564;23.280;2023-04-10T12:18:39;98570.91;;;17.64;32.91
6194;BME280;3130;41.564;23.280;2023-04-10T12:21:07;98565.69;;;17.73;32.38
6194;BME280;3130;41.564;23.280;2023-04-10T12:23:36;98555.81;;;17.77;31.85
6194;BME280;3130;41.564;23.280;2023-04-10T12:26:11;98557.94;;;17.64;30.56
6194;BME280;3130;41.564;23.280;2023-04-10T12:28:41;98562.66;;;17.95;31.70
6194;BME280;3130;41.564;23.280;2023-04-10T12:31:08;98553.56;;;18.09;31.07
6194;BME280;3130;41.564;23.280;2023-04-10T12:33:36;98554.25;;;18.28;30.76
6194;BME280;3130;41.564;23.280;2023-04-10T12:36:03;98563.25;;;18.33;30.78
6194;BME280;3130;41.564;23.280;2023-04-10T12:38:40;98553.31;;;18.46;30.57
6194;BME280;3130;41.564;23.280;2023-04-10T12:41:10;98555.38;;;18.60;29.07
6194;BME280;3130;41.564;23.280;2023-04-10T12:43:38;98555.97;;;18.54;28.56
6194;BME280;3130;41.564;23.280;2023-04-10T12:46:07;98551.56;;;18.20;29.75
6194;BME280;3130;41.564;23.280;2023-04-10T12:48:35;98548.09;;;18.29;29.73
6194;BME280;3130;41.564;23.280;2023-04-10T12:51:02;98545.38;;;18.30;29.38
6194;BME280;3130;41.564;23.280;2023-04-10T12:53:29;98549.81;;;18.38;29.87
6194;BME280;3130;41.564;23.280;2023-04-10T12:55:59;98541.06;;;18.39;29.87
6194;BME280;3130;41.564;23.280;2023-04-10T12:58:28;98540.63;;;18.26;27.78
6194;BME280;3130;41.564;23.280;2023-04-10T13:00:57;98547.59;;;18.43;27.46
6194;BME280;3130;41.564;23.280;2023-04-10T13:03:25;98553.44;;;18.45;27.46
6194;BME280;3130;41.564;23.280;2023-04-10T13:05:52;98531.94;;;18.35;26.74
6194;BME280;3130;41.564;23.280;2023-04-10T13:08:20;98546.69;;;18.52;27.25
6194;BME280;3130;41.564;23.280;2023-04-10T13:10:47;98545.44;;;18.56;27.46
6194;BME280;3130;41.564;23.280;2023-04-10T13:13:15;98511.19;;;18.35;27.21
6194;BME280;3130;41.564;23.280;2023-04-10T13:15:44;98549.09;;;18.18;28.17
6194;BME280;3130;41.564;23.280;2023-04-10T13:18:11;98539.84;;;18.16;27.77
6194;BME280;3130;41.564;23.280;2023-04-10T13:20:39;98537.16;;;17.73;28.77
6194;BME280;3130;41.564;23.280;2023-04-10T13:23:06;98543.81;;;17.76;28.82